MMLP/LAP METAR and TAF weather

Enter ICAO airport designator
Station Type Date Time Source
MMLP METAR 2022/01/29 05:41 UTC NOAA

MMLP 290541Z 00000KT 10SM SKC 15/08 A3011 NOSIG


Station Type Date Time Source
MMLP Decoded METAR 2022/01/29 05:41 UTC NOAA

La Paz International Airport, Mexico (MMLP) 24-04N 110-22W
Jan 29, 2022 - 12:41 AM EST / 2022.01.29 0541 UTC
Wind: Calm:0
Visibility: 10 mile(s):0
Sky conditions: clear
Temperature: 59 F (15 C)
Dew Point: 46 F (8 C)
Relative Humidity: 62%
Pressure (altimeter): 30.11 in. Hg (1019 hPa)
ob: MMLP 290541Z 00000KT 10SM SKC 15/08 A3011 NOSIG
cycle: 5

Station Type Date Time Source
MMLP TAF 2022/01/29 06:16 UTC NOAA

TAF MMLP 290508Z 2906/3006 00000KT P6SM SKC
FM291800 03010KT P6SM SKC
FM300400 00000KT P6SM SKC

Example: see airport list